sensor_id;sensor_type;location;lat;lon;timestamp;temperature;humidity
62555;DHT22;48610;52.144;8.624;2023-08-20T18:25:32;24.80;99.90
62555;DHT22;48610;52.144;8.624;2023-08-20T18:28:34;24.60;99.90
62555;DHT22;48610;52.144;8.624;2023-08-20T18:31:35;24.60;99.90
62555;DHT22;48610;52.144;8.624;2023-08-20T18:34:36;24.50;99.90
62555;DHT22;48610;52.144;8.624;2023-08-20T18:37:36;24.50;99.90
62555;DHT22;48610;52.144;8.624;2023-08-20T18:40:37;24.50;99.90
62555;DHT22;48610;52.144;8.624;2023-08-20T18:43:38;24.40;99.90
62555;DHT22;48610;52.144;8.624;2023-08-20T18:46:39;24.40;99.90
62555;DHT22;48610;52.144;8.624;2023-08-20T18:49:39;24.50;99.90
62555;DHT22;48610;52.144;8.624;2023-08-20T18:52:40;24.40;99.90
62555;DHT22;48610;52.144;8.624;2023-08-20T18:55:41;24.30;99.90
62555;DHT22;48610;52.144;8.624;2023-08-20T18:58:41;24.20;99.90
62555;DHT22;48610;52.144;8.624;2023-08-20T19:01:42;24.10;99.90
62555;DHT22;48610;52.144;8.624;2023-08-20T19:04:43;23.90;99.90
62555;DHT22;48610;52.144;8.624;2023-08-20T19:07:43;23.90;99.90
62555;DHT22;48610;52.144;8.624;2023-08-20T19:10:49;23.90;99.90
62555;DHT22;48610;52.144;8.624;2023-08-20T19:13:50;23.70;99.90
62555;DHT22;48610;52.144;8.624;2023-08-20T19:16:51;23.80;99.90
62555;DHT22;48610;52.144;8.624;2023-08-20T19:19:51;23.80;99.90
62555;DHT22;48610;52.144;8.624;2023-08-20T19:22:52;23.90;99.90
62555;DHT22;48610;52.144;8.624;2023-08-20T19:25:53;23.90;99.90
62555;DHT22;48610;52.144;8.624;2023-08-20T19:28:54;23.80;99.90
62555;DHT22;48610;52.144;8.624;2023-08-20T19:31:55;23.70;99.90
62555;DHT22;48610;52.144;8.624;2023-08-20T19:34:55;23.60;99.90
62555;DHT22;48610;52.144;8.624;2023-08-20T19:37:56;23.60;99.90
62555;DHT22;48610;52.144;8.624;2023-08-20T19:40:57;23.60;99.90
62555;DHT22;48610;52.144;8.624;2023-08-20T19:43:58;23.70;99.90
62555;DHT22;48610;52.144;8.624;2023-08-20T19:46:58;23.50;99.90
62555;DHT22;48610;52.144;8.624;2023-08-20T19:49:59;23.50;99.90
62555;DHT22;48610;52.144;8.624;2023-08-20T19:53:00;23.40;99.90
62555;DHT22;48610;52.144;8.624;2023-08-20T19:56:00;23.30;99.90
62555;DHT22;48610;52.144;8.624;2023-08-20T19:59:01;23.30;99.90
62555;DHT22;48610;52.144;8.624;2023-08-20T20:02:03;23.10;99.90
62555;DHT22;48610;52.144;8.624;2023-08-20T20:05:08;23.00;99.90
62555;DHT22;48610;52.144;8.624;2023-08-20T20:08:09;23.10;99.90
62555;DHT22;48610;52.144;8.624;2023-08-20T20:11:09;23.00;99.90
62555;DHT22;48610;52.144;8.624;2023-08-20T20:14:10;23.00;99.90
62555;DHT22;48610;52.144;8.624;2023-08-20T20:17:10;23.00;99.90
62555;DHT22;48610;52.144;8.624;2023-08-20T20:20:11;23.00;99.90
62555;DHT22;48610;52.144;8.624;2023-08-20T20:23:12;22.90;99.90
62555;DHT22;48610;52.144;8.624;2023-08-20T20:26:12;22.80;99.90
62555;DHT22;48610;52.144;8.624;2023-08-20T20:29:13;22.60;99.90
62555;DHT22;48610;52.144;8.624;2023-08-20T20:32:14;22.30;99.90
62555;DHT22;48610;52.144;8.624;2023-08-20T20:35:14;22.10;99.90
62555;DHT22;48610;52.144;8.624;2023-08-20T20:38:16;22.10;99.90
62555;DHT22;48610;52.144;8.624;2023-08-20T20:41:16;21.90;99.90
62555;DHT22;48610;52.144;8.624;2023-08-20T20:44:17;21.80;99.90
62555;DHT22;48610;52.144;8.624;2023-08-20T20:47:17;21.70;99.90
62555;DHT22;48610;52.144;8.624;2023-08-20T20:50:18;21.60;99.90
62555;DHT22;48610;52.144;8.624;2023-08-20T20:53:19;21.70;99.90
62555;DHT22;48610;52.144;8.624;2023-08-20T20:56:19;21.60;99.90
62555;DHT22;48610;52.144;8.624;2023-08-20T20:59:20;21.50;99.90
62555;DHT22;48610;52.144;8.624;2023-08-20T21:02:21;21.30;99.90
62555;DHT22;48610;52.144;8.624;2023-08-20T21:05:22;21.10;99.90
62555;DHT22;48610;52.144;8.624;2023-08-20T21:08:22;21.00;99.90
62555;DHT22;48610;52.144;8.624;2023-08-20T21:11:23;21.00;99.90
62555;DHT22;48610;52.144;8.624;2023-08-20T21:14:24;21.00;99.90
62555;DHT22;48610;52.144;8.624;2023-08-20T21:17:24;20.90;99.90
62555;DHT22;48610;52.144;8.624;2023-08-20T21:20:25;20.80;99.90
62555;DHT22;48610;52.144;8.624;2023-08-20T21:23:26;20.80;99.90
62555;DHT22;48610;52.144;8.624;2023-08-20T21:26:26;20.50;99.90
62555;DHT22;48610;52.144;8.624;2023-08-20T21:29:27;20.40;99.90
62555;DHT22;48610;52.144;8.624;2023-08-20T21:32:28;20.40;99.90
62555;DHT22;48610;52.144;8.624;2023-08-20T21:35:28;20.40;99.90
62555;DHT22;48610;52.144;8.624;2023-08-20T21:38:29;20.40;99.90
62555;DHT22;48610;52.144;8.624;2023-08-20T21:41:29;20.40;99.90
62555;DHT22;48610;52.144;8.624;2023-08-20T21:44:30;20.40;99.90
62555;DHT22;48610;52.144;8.624;2023-08-20T21:47:30;20.40;99.90
62555;DHT22;48610;52.144;8.624;2023-08-20T21:50:34;20.40;99.90
62555;DHT22;48610;52.144;8.624;2023-08-20T21:53:35;20.20;99.90
62555;DHT22;48610;52.144;8.624;2023-08-20T21:56:35;20.10;99.90
62555;DHT22;48610;52.144;8.624;2023-08-20T21:59:36;20.10;99.90
62555;DHT22;48610;52.144;8.624;2023-08-20T22:02:37;20.00;99.90
62555;DHT22;48610;52.144;8.624;2023-08-20T22:05:37;19.90;99.90
62555;DHT22;48610;52.144;8.624;2023-08-20T22:08:38;19.80;99.90
62555;DHT22;48610;52.144;8.624;2023-08-20T22:11:39;19.90;99.90
62555;DHT22;48610;52.144;8.624;2023-08-20T22:14:40;20.00;99.90
62555;DHT22;48610;52.144;8.624;2023-08-20T22:17:44;19.90;99.90
62555;DHT22;48610;52.144;8.624;2023-08-20T22:20:45;19.80;99.90
62555;DHT22;48610;52.144;8.624;2023-08-20T22:23:47;19.60;99.90
62555;DHT22;48610;52.144;8.624;2023-08-20T22:26:47;19.40;99.90
62555;DHT22;48610;52.144;8.624;2023-08-20T22:29:48;19.30;99.90
62555;DHT22;48610;52.144;8.624;2023-08-20T22:32:48;19.30;99.90
62555;DHT22;48610;52.144;8.624;2023-08-20T22:35:50;19.30;99.90
62555;DHT22;48610;52.144;8.624;2023-08-20T22:38:50;19.20;99.90
62555;DHT22;48610;52.144;8.624;2023-08-20T22:41:51;19.30;99.90
62555;DHT22;48610;52.144;8.624;2023-08-20T22:44:52;19.40;99.90
62555;DHT22;48610;52.144;8.624;2023-08-20T22:47:53;19.30;99.90
62555;DHT22;48610;52.144;8.624;2023-08-20T22:50:53;19.30;99.90
62555;DHT22;48610;52.144;8.624;2023-08-20T22:53:54;19.30;99.90
62555;DHT22;48610;52.144;8.624;2023-08-20T22:56:54;19.40;99.90
62555;DHT22;48610;52.144;8.624;2023-08-20T22:59:55;19.40;99.90
62555;DHT22;48610;52.144;8.624;2023-08-20T23:02:56;19.20;99.90
62555;DHT22;48610;52.144;8.624;2023-08-20T23:05:57;19.00;99.90
62555;DHT22;48610;52.144;8.624;2023-08-20T23:08:57;18.90;99.90
62555;DHT22;48610;52.144;8.624;2023-08-20T23:11:58;18.90;99.90
62555;DHT22;48610;52.144;8.624;2023-08-20T23:14:58;18.80;99.90
62555;DHT22;48610;52.144;8.624;2023-08-20T23:17:59;18.80;99.90
62555;DHT22;48610;52.144;8.624;2023-08-20T23:21:01;18.80;99.90
62555;DHT22;48610;52.144;8.624;2023-08-20T23:24:02;18.80;99.90
62555;DHT22;48610;52.144;8.624;2023-08-20T23:27:02;18.80;99.90
62555;DHT22;48610;52.144;8.624;2023-08-20T23:30:03;18.60;99.90
62555;DHT22;48610;52.144;8.624;2023-08-20T23:33:06;18.60;99.90
62555;DHT22;48610;52.144;8.624;2023-08-20T23:36:06;18.80;99.90
62555;DHT22;48610;52.144;8.624;2023-08-20T23:39:07;18.70;99.90
62555;DHT22;48610;52.144;8.624;2023-08-20T23:42:08;18.70;99.90
62555;DHT22;48610;52.144;8.624;2023-08-20T23:45:08;18.80;99.90
62555;DHT22;48610;52.144;8.624;2023-08-20T23:48:09;18.80;99.90
62555;DHT22;48610;52.144;8.624;2023-08-20T23:51:10;18.80;99.90
62555;DHT22;48610;52.144;8.624;2023-08-20T23:54:10;18.80;99.90
62555;DHT22;48610;52.144;8.624;2023-08-20T23:57:11;18.70;99.90
